createdAt,value
2019-06-10T00:00:43.626Z,101702.67
2019-06-10T00:03:11.508Z,101699.52
2019-06-10T00:05:37.428Z,101696.23
2019-06-10T00:08:04.257Z,101684.82
2019-06-10T00:10:31.199Z,101687.61
2019-06-10T00:12:57.311Z,101673.61
2019-06-10T00:15:23.185Z,101673.76
2019-06-10T00:17:59.323Z,101664.06
2019-06-10T00:20:16.809Z,101658.17
2019-06-10T00:22:42.660Z,101651.63
2019-06-10T00:25:08.714Z,101637.97
2019-06-10T00:27:34.571Z,101643.09
2019-06-10T00:30:02.925Z,101634.97
2019-06-10T00:32:28.207Z,101633.23
2019-06-10T00:34:54.086Z,101634.42
2019-06-10T00:37:21.240Z,101637.37
2019-06-10T00:39:47.212Z,101619.75
2019-06-10T00:42:15.045Z,101625.30
2019-06-10T00:44:41.625Z,101626.93
2019-06-10T00:47:09.271Z,101621.36
2019-06-10T00:49:35.381Z,101621.58
2019-06-10T00:52:03.040Z,101615.19
2019-06-10T00:54:31.259Z,101615.00
2019-06-10T00:56:56.857Z,101607.91
2019-06-10T00:59:22.795Z,101606.28
2019-06-10T01:01:50.927Z,101607.00
2019-06-10T01:04:16.681Z,101599.21
2019-06-10T01:06:42.625Z,101594.19
2019-06-10T01:09:08.801Z,101586.94
2019-06-10T01:11:36.274Z,101588.16
2019-06-10T01:14:03.070Z,101583.33
2019-06-10T01:16:28.989Z,101584.33
2019-06-10T01:18:54.864Z,101582.92
2019-06-10T01:21:21.815Z,101576.35
2019-06-10T01:23:47.981Z,101574.78
2019-06-10T01:26:16.287Z,101577.71
2019-06-10T01:28:41.637Z,101575.61
2019-06-10T01:31:10.054Z,101565.77
2019-06-10T01:33:35.260Z,101568.70
2019-06-10T01:36:01.129Z,101580.40
2019-06-10T01:38:27.017Z,101575.25
2019-06-10T01:40:52.879Z,101572.02
2019-06-10T01:43:21.223Z,101578.20
2019-06-10T01:45:46.497Z,101573.55
2019-06-10T01:48:14.725Z,101577.33
2019-06-10T01:50:40.697Z,101572.80
2019-06-10T01:53:07.312Z,101569.19
2019-06-10T01:55:33.287Z,101558.30
2019-06-10T01:58:00.863Z,101560.34
2019-06-10T02:00:31.326Z,101563.80
2019-06-10T02:02:57.146Z,101555.69
2019-06-10T02:05:23.106Z,101556.03
2019-06-10T02:07:48.971Z,101551.55
2019-06-10T02:10:17.150Z,101545.85
2019-06-10T02:12:42.726Z,101542.01
2019-06-10T02:15:10.062Z,101536.48
2019-06-10T02:17:36.641Z,101530.20
2019-06-10T02:20:05.681Z,101522.97
2019-06-10T02:22:31.899Z,101513.28
2019-06-10T02:24:57.905Z,101518.80
2019-06-10T02:27:23.771Z,101508.61
2019-06-10T02:29:50.706Z,101510.25
2019-06-10T02:32:21.127Z,101506.99
2019-06-10T02:35:01.168Z,101501.82
2019-06-10T02:37:15.616Z,101512.20
2019-06-10T02:39:43.749Z,101503.25
2019-06-10T02:42:09.680Z,101499.52
2019-06-10T02:44:37.970Z,101503.65
2019-06-10T02:47:03.997Z,101498.27
2019-06-10T02:49:51.519Z,101494.27
2019-06-10T02:51:57.643Z,101500.41
2019-06-10T02:54:29.237Z,101500.94
2019-06-10T02:56:53.694Z,101501.23
2019-06-10T02:59:21.765Z,101498.84
2019-06-10T03:01:46.876Z,101506.03
2019-06-10T03:04:13.808Z,101493.09
2019-06-10T03:06:41.601Z,101503.23
2019-06-10T03:09:07.677Z,101496.34
2019-06-10T03:11:37.181Z,101501.86
2019-06-10T03:14:02.599Z,101496.38
2019-06-10T03:16:32.750Z,101488.58
2019-06-10T03:18:58.193Z,101480.93
2019-06-10T03:21:25.848Z,101482.88
2019-06-10T03:23:53.149Z,101479.72
2019-06-10T03:26:19.283Z,101482.48
2019-06-10T03:28:45.158Z,101480.05
2019-06-10T03:31:15.230Z,101484.13
2019-06-10T03:33:42.116Z,101486.42
2019-06-10T03:36:06.539Z,101483.77
2019-06-10T03:38:32.764Z,101474.47
2019-06-10T03:40:58.682Z,101472.73
2019-06-10T03:43:26.334Z,101474.17
2019-06-10T03:45:53.168Z,101474.00
2019-06-10T03:48:19.145Z,101469.31
2019-06-10T03:50:45.154Z,101462.72
2019-06-10T03:53:12.895Z,101458.70
2019-06-10T03:55:38.802Z,101453.65
2019-06-10T03:58:07.515Z,101460.48
2019-06-10T04:00:36.726Z,101464.66
2019-06-10T04:03:02.765Z,101461.44
2019-06-10T04:05:28.956Z,101455.20
2019-06-10T04:07:54.836Z,101453.13
2019-06-10T04:10:23.976Z,101454.61
2019-06-10T04:12:48.500Z,101445.77
2019-06-10T04:15:14.560Z,101458.08
2019-06-10T04:17:42.618Z,101462.48
2019-06-10T04:20:12.377Z,101457.88
2019-06-10T04:22:36.576Z,101458.48
2019-06-10T04:25:04.138Z,101456.55
2019-06-10T04:27:29.998Z,101452.27
2019-06-10T04:29:56.068Z,101440.16
2019-06-10T04:32:23.150Z,101436.80
2019-06-10T04:34:49.691Z,101423.67
2019-06-10T04:37:15.627Z,101428.50
2019-06-10T04:39:42.801Z,101426.48
2019-06-10T04:42:08.683Z,101418.34
2019-06-10T04:44:34.544Z,101413.56
2019-06-10T04:47:02.542Z,101418.02
2019-06-10T04:49:28.660Z,101417.95
2019-06-10T04:51:55.555Z,101413.73
2019-06-10T04:54:23.849Z,101414.19
2019-06-10T04:56:49.218Z,101409.71
2019-06-10T04:59:15.076Z,101406.45
2019-06-10T05:01:42.606Z,101408.30
2019-06-10T05:04:08.628Z,101406.91
2019-06-10T05:06:34.502Z,101402.54
2019-06-10T05:09:00.400Z,101404.47
2019-06-10T05:11:27.358Z,101403.42
2019-06-10T05:13:54.140Z,101409.75
2019-06-10T05:16:23.420Z,101407.91
2019-06-10T05:18:47.760Z,101415.83
2019-06-10T05:21:13.619Z,101431.20
2019-06-10T05:23:39.479Z,101428.47
2019-06-10T05:26:05.353Z,101432.78
2019-06-10T05:28:33.863Z,101429.17
2019-06-10T05:30:58.981Z,101429.45
2019-06-10T05:33:26.002Z,101429.93
2019-06-10T05:35:52.980Z,101432.16
2019-06-10T05:38:18.982Z,101427.22
2019-06-10T05:40:44.902Z,101425.63
2019-06-10T05:43:12.904Z,101427.27
2019-06-10T05:45:38.522Z,101419.52
2019-06-10T05:48:04.429Z,101413.45
2019-06-10T05:50:31.183Z,101416.23
2019-06-10T05:52:58.113Z,101412.26
2019-06-10T05:55:24.364Z,101415.55
2019-06-10T05:57:53.280Z,101414.46
2019-06-10T06:00:19.194Z,101413.84
2019-06-10T06:02:45.054Z,101412.55
2019-06-10T06:05:12.837Z,101411.00
2019-06-10T06:07:38.821Z,101406.30
2019-06-10T06:10:06.881Z,101403.61
2019-06-10T06:12:34.516Z,101400.71
2019-06-10T06:15:02.364Z,101407.75
2019-06-10T06:17:28.383Z,101402.64
2019-06-10T06:19:54.239Z,101392.42
2019-06-10T06:22:22.145Z,101386.02
2019-06-10T06:24:47.885Z,101388.09
2019-06-10T06:27:13.754Z,101397.75
2019-06-10T06:29:39.619Z,101388.44
2019-06-10T06:32:05.518Z,101388.09
2019-06-10T06:34:33.689Z,101386.05
2019-06-10T06:36:59.148Z,101385.83
2019-06-10T06:39:25.019Z,101384.26
2019-06-10T06:41:52.831Z,101382.91
2019-06-10T06:44:18.640Z,101381.03
2019-06-10T06:46:44.524Z,101388.12
2019-06-10T06:49:12.819Z,101383.48
2019-06-10T06:51:54.047Z,101378.78
2019-06-10T06:54:06.057Z,101372.96
2019-06-10T06:56:35.637Z,101377.17
2019-06-10T06:59:02.385Z,101367.50
2019-06-10T07:01:27.747Z,101368.20
2019-06-10T07:03:53.831Z,101371.31
2019-06-10T07:06:22.950Z,101374.77
2019-06-10T07:09:03.371Z,101375.70
2019-06-10T07:11:17.305Z,101381.30
2019-06-10T07:13:45.577Z,101393.53
2019-06-10T07:16:13.170Z,101384.34
2019-06-10T07:18:43.527Z,101380.66
2019-06-10T07:21:06.578Z,101374.19
2019-06-10T07:23:35.464Z,101372.03
2019-06-10T07:26:02.295Z,101364.63
2019-06-10T07:28:28.002Z,101353.48
2019-06-10T07:30:55.320Z,101353.66
2019-06-10T07:33:22.689Z,101349.83
2019-06-10T07:35:48.705Z,101345.25
2019-06-10T07:38:14.575Z,101344.70
2019-06-10T07:40:45.247Z,101338.46
2019-06-10T07:43:08.317Z,101341.00
2019-06-10T07:45:37.766Z,101347.67
2019-06-10T07:48:02.856Z,101349.82
2019-06-10T07:50:28.810Z,101344.22
2019-06-10T07:52:54.759Z,101345.20
2019-06-10T07:55:22.203Z,101341.21
2019-06-10T07:57:48.122Z,101338.30
2019-06-10T08:00:14.773Z,101340.27
2019-06-10T08:02:44.230Z,101344.37
2019-06-10T08:05:08.911Z,101318.60
2019-06-10T08:07:35.240Z,101307.98
2019-06-10T08:10:03.629Z,101307.98
2019-06-10T08:12:29.500Z,101326.41
2019-06-10T08:14:55.354Z,101313.09
2019-06-10T08:17:22.406Z,101319.36
2019-06-10T08:19:50.880Z,101304.08
2019-06-10T08:22:29.933Z,101311.60
2019-06-10T08:24:45.364Z,101315.44
2019-06-10T08:27:12.084Z,101306.61
2019-06-10T08:29:38.633Z,101306.44
2019-06-10T08:32:04.689Z,101306.47
2019-06-10T08:34:32.800Z,101303.11
2019-06-10T08:36:58.326Z,101303.55
2019-06-10T08:39:24.295Z,101295.13
2019-06-10T08:41:52.674Z,101282.41
2019-06-10T08:44:18.120Z,101293.03
2019-06-10T08:46:46.523Z,101293.03
2019-06-10T08:49:12.638Z,101288.28
2019-06-10T08:51:39.655Z,101288.33
2019-06-10T08:54:05.696Z,101288.33
2019-06-10T08:56:32.819Z,101279.05
2019-06-10T08:58:59.141Z,101265.75
2019-06-10T09:01:25.113Z,101268.84
2019-06-10T09:03:53.470Z,101258.98
2019-06-10T09:06:18.759Z,101256.87
2019-06-10T09:08:47.991Z,101255.89
2019-06-10T09:11:13.141Z,101269.01
2019-06-10T09:13:39.607Z,101259.73
2019-06-10T09:16:15.628Z,101260.52
2019-06-10T09:18:34.792Z,101254.38
2019-06-10T09:21:02.293Z,101253.08
2019-06-10T09:23:28.360Z,101257.18
2019-06-10T09:25:57.289Z,101245.33
2019-06-10T09:28:23.470Z,101249.53
2019-06-10T09:30:56.167Z,101249.75
2019-06-10T09:33:17.241Z,101244.63
2019-06-10T09:35:46.149Z,101244.00
2019-06-10T09:38:10.875Z,101235.38
2019-06-10T09:40:48.649Z,101231.00
2019-06-10T09:43:12.862Z,101244.44
2019-06-10T09:45:40.874Z,101234.51
2019-06-10T09:48:06.771Z,101230.27
2019-06-10T09:50:41.214Z,101232.78
2019-06-10T09:53:07.075Z,101233.57
2019-06-10T09:55:33.012Z,101224.79
2019-06-10T09:58:00.079Z,101214.84
2019-06-10T10:00:42.204Z,101211.11
2019-06-10T10:03:08.142Z,101211.08
2019-06-10T10:05:34.043Z,101205.41
2019-06-10T10:08:00.111Z,101205.19
2019-06-10T10:10:37.462Z,101202.91
2019-06-10T10:13:07.105Z,101199.54
2019-06-10T10:15:34.585Z,101204.92
2019-06-10T10:18:02.602Z,101201.23
2019-06-10T10:20:28.483Z,101206.69
2019-06-10T10:22:55.519Z,101204.39
2019-06-10T10:25:23.530Z,101216.42
2019-06-10T10:27:51.420Z,101201.58
2019-06-10T10:30:24.216Z,101193.74
2019-06-10T10:32:50.481Z,101197.86
2019-06-10T10:35:16.364Z,101191.56
2019-06-10T10:37:42.422Z,101192.97
2019-06-10T10:40:08.486Z,101203.77
2019-06-10T10:42:45.549Z,101191.58
2019-06-10T10:45:04.840Z,101188.44
2019-06-10T10:47:33.576Z,101174.90
2019-06-10T10:49:58.510Z,101178.52
2019-06-10T10:52:24.364Z,101180.67
2019-06-10T10:54:51.875Z,101181.60
2019-06-10T10:57:18.014Z,101177.86
2019-06-10T10:59:45.108Z,101173.38
2019-06-10T11:02:12.695Z,101165.89
2019-06-10T11:04:44.155Z,101157.61
2019-06-10T11:07:12.825Z,101162.73
2019-06-10T11:09:37.989Z,101161.27
2019-06-10T11:12:03.862Z,101156.89
2019-06-10T11:14:30.126Z,101157.86
2019-06-10T11:16:58.461Z,101151.03
2019-06-10T11:19:23.877Z,101143.30
2019-06-10T11:21:49.744Z,101143.69
2019-06-10T11:24:32.481Z,101136.90
2019-06-10T11:26:43.402Z,101135.19
2019-06-10T11:29:09.239Z,101132.22
2019-06-10T11:31:35.113Z,101126.82
2019-06-10T11:34:02.983Z,101117.87
2019-06-10T11:36:28.789Z,101110.02
2019-06-10T11:38:56.744Z,101114.58
2019-06-10T11:41:23.619Z,101107.50
2019-06-10T11:43:51.175Z,101112.12
2019-06-10T11:46:17.512Z,101123.52
2019-06-10T11:48:44.404Z,101124.48
2019-06-10T11:51:12.719Z,101126.88
2019-06-10T11:53:38.236Z,101131.45
2019-06-10T11:56:04.099Z,101123.22
2019-06-10T11:58:29.999Z,101114.44
2019-06-10T12:00:58.784Z,101111.55
2019-06-10T12:03:23.575Z,101118.67
2019-06-10T12:05:53.400Z,101112.72
2019-06-10T12:08:17.220Z,101113.38
2019-06-10T12:10:43.470Z,101108.00
2019-06-10T12:13:10.274Z,101118.65
2019-06-10T12:18:03.836Z,101115.66
2019-06-10T12:20:28.398Z,101113.39
2019-06-10T12:22:57.911Z,101106.91
2019-06-10T12:25:32.578Z,101103.38
2019-06-10T12:27:50.447Z,101109.16
2019-06-10T12:30:17.206Z,101093.35
2019-06-10T12:32:43.073Z,101083.80
2019-06-10T12:35:13.528Z,101092.34
2019-06-10T12:37:38.543Z,101074.11
2019-06-10T12:40:09.215Z,101070.16
2019-06-10T12:42:35.093Z,101070.25
2019-06-10T12:45:05.324Z,101064.58
2019-06-10T12:47:28.867Z,101057.59
2019-06-10T12:49:56.163Z,101063.69
2019-06-10T12:52:22.966Z,101058.47
2019-06-10T12:54:48.875Z,101061.36
2019-06-10T12:57:16.466Z,101044.80
2019-06-10T12:59:42.999Z,101052.23
2019-06-10T13:02:18.987Z,101048.17
2019-06-10T13:04:37.538Z,101045.34
2019-06-10T13:07:05.735Z,101033.26
2019-06-10T13:09:32.870Z,101047.88
2019-06-10T13:11:59.808Z,101038.55
2019-06-10T13:14:25.701Z,101041.27
2019-06-10T13:16:52.619Z,101044.29
2019-06-10T13:19:18.741Z,101035.94
2019-06-10T13:21:44.618Z,101026.47
2019-06-10T13:24:12.901Z,101023.33
2019-06-10T13:26:38.250Z,101029.80
2019-06-10T13:29:07.007Z,101019.97
2019-06-10T13:31:33.664Z,101015.13
2019-06-10T13:34:05.050Z,101017.32
2019-06-10T13:36:27.503Z,101006.98
2019-06-10T13:38:53.437Z,101009.02
2019-06-10T13:41:19.246Z,101009.52
2019-06-10T13:43:45.113Z,101010.86
2019-06-10T13:46:11.176Z,101011.30
2019-06-10T13:48:37.037Z,100997.51
2019-06-10T13:51:08.266Z,100999.66
2019-06-10T13:53:30.894Z,100996.87
2019-06-10T13:56:14.677Z,100991.89
2019-06-10T13:58:25.085Z,100985.77
2019-06-10T14:00:53.648Z,100991.55
2019-06-10T14:03:18.851Z,100985.05
2019-06-10T14:05:45.237Z,100987.50
2019-06-10T14:08:15.078Z,100989.03
2019-06-10T14:10:39.060Z,100986.24
2019-06-10T14:13:10.571Z,100975.91
2019-06-10T14:15:35.985Z,100967.57
2019-06-10T14:18:05.163Z,100978.53
2019-06-10T14:20:29.623Z,100974.51
2019-06-10T14:22:55.478Z,100975.12
2019-06-10T14:25:23.295Z,100970.13
2019-06-10T14:27:49.102Z,100970.94
2019-06-10T14:30:16.158Z,100964.02
2019-06-10T14:32:42.616Z,100971.92
2019-06-10T14:35:10.885Z,100967.42
2019-06-10T14:37:39.351Z,100974.42
2019-06-10T14:40:07.065Z,100979.55
2019-06-10T14:42:33.319Z,100972.84
2019-06-10T14:44:59.170Z,100985.05
2019-06-10T14:47:25.021Z,100982.80
2019-06-10T14:49:52.998Z,100985.59
2019-06-10T14:52:18.650Z,100990.83
2019-06-10T14:54:48.506Z,100991.71
2019-06-10T14:57:15.485Z,100993.66
2019-06-10T14:59:42.622Z,101003.72
2019-06-10T15:02:09.762Z,100996.17
2019-06-10T15:04:36.239Z,100991.10
2019-06-10T15:07:03.348Z,100989.20
2019-06-10T15:09:29.774Z,100996.14
2019-06-10T15:11:55.650Z,101009.97
2019-06-10T15:14:23.297Z,101001.14
2019-06-10T15:16:49.434Z,100995.73
2019-06-10T15:19:21.913Z,100991.50
2019-06-10T15:21:43.501Z,100986.05
2019-06-10T15:24:09.885Z,100975.75
2019-06-10T15:26:35.817Z,100973.42
2019-06-10T15:29:02.728Z,100974.16
2019-06-10T15:31:28.865Z,100978.20
2019-06-10T15:33:54.732Z,100968.80
2019-06-10T15:36:20.604Z,100961.36
2019-06-10T15:38:46.474Z,100949.66
2019-06-10T15:41:16.056Z,100951.73
2019-06-10T15:43:42.248Z,100942.13
2019-06-10T15:46:07.902Z,100943.95
2019-06-10T15:48:33.772Z,100944.82
2019-06-10T15:50:59.633Z,100943.97
2019-06-10T15:53:25.998Z,100941.98
2019-06-10T15:58:21.136Z,100933.80
2019-06-10T16:00:47.579Z,100930.74
2019-06-10T16:03:15.878Z,100942.49
2019-06-10T16:05:42.741Z,100940.05
2019-06-10T16:08:08.677Z,100922.23
2019-06-10T16:10:34.537Z,100916.83
2019-06-10T16:13:03.228Z,100929.34
2019-06-10T16:15:28.285Z,100925.30
2019-06-10T16:17:54.153Z,100925.16
2019-06-10T16:20:21.367Z,100928.86
2019-06-10T16:22:52.343Z,100920.17
2019-06-10T16:25:18.372Z,100906.54
2019-06-10T16:27:50.731Z,100906.77
2019-06-10T16:30:13.117Z,100900.02
2019-06-10T16:32:40.049Z,100903.88
2019-06-10T16:35:06.394Z,100899.89
2019-06-10T16:37:32.770Z,100901.89
2019-06-10T16:39:58.737Z,100894.44
2019-06-10T16:42:26.185Z,100884.16
2019-06-10T16:44:52.836Z,100881.72
2019-06-10T16:47:19.102Z,100881.37
2019-06-10T16:49:45.121Z,100877.19
2019-06-10T16:52:12.143Z,100884.55
2019-06-10T16:54:38.128Z,100890.78
2019-06-10T16:57:04.034Z,100895.06
2019-06-10T16:59:30.834Z,100893.02
2019-06-10T17:01:57.686Z,100894.19
2019-06-10T17:04:24.594Z,100891.33
2019-06-10T17:06:52.595Z,100892.99
2019-06-10T17:09:18.622Z,100886.15
2019-06-10T17:11:44.454Z,100896.91
2019-06-10T17:14:12.499Z,100894.24
2019-06-10T17:16:40.577Z,100903.38
2019-06-10T17:19:05.877Z,100899.52
2019-06-10T17:21:34.595Z,100905.93
2019-06-10T17:24:03.258Z,100895.57
2019-06-10T17:26:33.461Z,100904.91
2019-06-10T17:28:55.946Z,100902.23
2019-06-10T17:31:25.739Z,100902.45
2019-06-10T17:33:49.580Z,100910.30
2019-06-10T17:36:15.536Z,100899.79
2019-06-10T17:38:42.990Z,100906.13
2019-06-10T17:41:09.563Z,100903.34
2019-06-10T17:43:35.421Z,100914.17
2019-06-10T17:46:03.401Z,100924.14
2019-06-10T17:48:29.279Z,100900.80
2019-06-10T17:50:55.448Z,100904.20
2019-06-10T17:53:22.258Z,100907.21
2019-06-10T17:55:48.379Z,100922.09
2019-06-10T17:58:14.247Z,100921.36
2019-06-10T18:00:42.235Z,100924.36
2019-06-10T18:03:07.867Z,100938.63
2019-06-10T18:05:33.740Z,100934.41
2019-06-10T18:08:02.163Z,100947.16
2019-06-10T18:10:27.722Z,100954.97
2019-06-10T18:12:53.673Z,100953.14
2019-06-10T18:15:22.083Z,100961.18
2019-06-10T18:17:47.431Z,100963.41
2019-06-10T18:20:15.420Z,100974.23
2019-06-10T18:22:41.388Z,100968.25
2019-06-10T18:25:07.352Z,100973.45
2019-06-10T18:27:34.107Z,100976.64
2019-06-10T18:30:02.486Z,100989.56
2019-06-10T18:32:29.704Z,101001.80
2019-06-10T18:34:56.615Z,101001.03
2019-06-10T18:37:22.823Z,100999.13
2019-06-10T18:39:48.814Z,101003.45
2019-06-10T18:42:14.708Z,101002.81
2019-06-10T18:44:40.547Z,101018.67
2019-06-10T18:47:06.394Z,101018.62
2019-06-10T18:49:34.027Z,101028.23
2019-06-10T18:52:00.030Z,101020.10
2019-06-10T18:54:25.881Z,101032.23
2019-06-10T18:56:52.610Z,101038.47
2019-06-10T18:59:21.295Z,101043.92
2019-06-10T19:01:46.303Z,101043.14
2019-06-10T19:04:12.980Z,101043.09
2019-06-10T19:06:39.888Z,101038.83
2019-06-10T19:09:06.810Z,101039.35
2019-06-10T19:11:34.119Z,101031.00
2019-06-10T19:14:03.164Z,101035.51
2019-06-10T19:16:29.672Z,101033.48
2019-06-10T19:18:55.614Z,101020.98
2019-06-10T19:21:21.486Z,101015.76
2019-06-10T19:23:47.592Z,101018.47
2019-06-10T19:26:13.885Z,101013.83
2019-06-10T19:28:41.240Z,101006.23
2019-06-10T19:31:07.723Z,101008.22
2019-06-10T19:33:35.737Z,101012.72
2019-06-10T19:36:02.227Z,101009.05
2019-06-10T19:38:28.310Z,101014.34
2019-06-10T19:40:54.288Z,101017.39
2019-06-10T19:43:20.292Z,101014.40
2019-06-10T19:45:46.900Z,101020.19
2019-06-10T19:48:12.938Z,101010.25
2019-06-10T19:50:39.449Z,101011.51
2019-06-10T19:53:06.615Z,101013.52
2019-06-10T19:55:33.723Z,101017.70
2019-06-10T19:58:03.483Z,101011.66
2019-06-10T20:00:28.051Z,101017.59
2019-06-10T20:02:53.927Z,101017.59
2019-06-10T20:05:19.873Z,101014.24
2019-06-10T20:07:50.101Z,101017.51
2019-06-10T20:10:13.904Z,101017.92
2019-06-10T20:12:41.050Z,101002.77
2019-06-10T20:15:24.326Z,101009.72
2019-06-10T20:17:52.545Z,101005.97
2019-06-10T20:20:19.118Z,101008.95
2019-06-10T20:22:46.669Z,100993.87
2019-06-10T20:25:14.398Z,100995.06
2019-06-10T20:27:42.836Z,100989.87
2019-06-10T20:30:21.596Z,100978.72
2019-06-10T20:32:37.148Z,100974.19
2019-06-10T20:35:05.003Z,100976.08
2019-06-10T20:37:32.645Z,100990.63
2019-06-10T20:39:58.502Z,100986.19
2019-06-10T20:42:24.355Z,100985.81
2019-06-10T20:44:50.226Z,100988.93
2019-06-10T20:47:16.082Z,100993.34
2019-06-10T20:49:44.556Z,100989.54
2019-06-10T20:52:12.331Z,100982.49
2019-06-10T20:54:38.261Z,100996.16
2019-06-10T20:57:04.392Z,100987.55
2019-06-10T20:59:33.097Z,100994.34
2019-06-10T21:01:57.975Z,100991.23
2019-06-10T21:04:23.837Z,101007.41
2019-06-10T21:06:53.145Z,101000.26
2019-06-10T21:09:22.436Z,100998.68
2019-06-10T21:11:48.593Z,100995.15
2019-06-10T21:14:15.680Z,100996.51
2019-06-10T21:16:42.024Z,100990.58
2019-06-10T21:19:08.031Z,101002.41
2019-06-10T21:21:33.892Z,100996.67
2019-06-10T21:24:02.078Z,101002.41
2019-06-10T21:26:27.571Z,101008.07
2019-06-10T21:28:55.057Z,101017.88
2019-06-10T21:31:21.225Z,101012.91
2019-06-10T21:33:49.074Z,101007.72
2019-06-10T21:36:14.875Z,101014.40
2019-06-10T21:38:43.870Z,101020.41
2019-06-10T21:41:08.498Z,101024.67
2019-06-10T21:43:34.364Z,101027.39
2019-06-10T21:46:00.239Z,101041.51
2019-06-10T21:48:26.105Z,101041.31
2019-06-10T21:50:55.811Z,101031.72
2019-06-10T21:53:22.168Z,101033.83
2019-06-10T21:55:48.699Z,101024.70
2019-06-10T21:58:14.635Z,101032.34
2019-06-10T22:00:55.590Z,101027.09
2019-06-10T22:03:12.873Z,101026.45
2019-06-10T22:05:38.727Z,101028.73
2019-06-10T22:08:04.612Z,101038.77
2019-06-10T22:10:30.463Z,101035.00
2019-06-10T22:12:56.335Z,101039.38
2019-06-10T22:15:22.632Z,101038.70
2019-06-10T22:17:48.542Z,101040.59
2019-06-10T22:20:14.495Z,101035.91
2019-06-10T22:22:42.706Z,101030.55
2019-06-10T22:25:08.432Z,101028.20
2019-06-10T22:27:34.278Z,101027.88
2019-06-10T22:30:02.710Z,101028.73
2019-06-10T22:32:27.937Z,101031.09
2019-06-10T22:34:55.509Z,101030.56
2019-06-10T22:37:23.668Z,101033.58
2019-06-10T22:39:50.034Z,101024.11
2019-06-10T22:42:15.880Z,101024.05
2019-06-10T22:44:42.377Z,101024.93
2019-06-10T22:47:08.436Z,101029.71
2019-06-10T22:49:34.285Z,101035.25
2019-06-10T22:52:00.436Z,101018.97
2019-06-10T22:54:26.472Z,101015.97
2019-06-10T22:56:56.226Z,101018.36
2019-06-10T22:59:20.099Z,101029.23
2019-06-10T23:01:45.971Z,101032.83
2019-06-10T23:04:13.494Z,101033.70
2019-06-10T23:06:39.491Z,101033.89
2019-06-10T23:09:05.651Z,101046.53
2019-06-10T23:11:32.305Z,101050.89
2019-06-10T23:13:59.564Z,101044.13
2019-06-10T23:16:25.511Z,101039.45
2019-06-10T23:18:53.592Z,101041.69
2019-06-10T23:21:19.126Z,101040.15
2019-06-10T23:23:44.984Z,101040.44
2019-06-10T23:26:12.957Z,101039.00
2019-06-10T23:28:38.605Z,101033.95
2019-06-10T23:31:05.457Z,101037.94
2019-06-10T23:33:32.407Z,101034.30
2019-06-10T23:35:58.756Z,101041.40
2019-06-10T23:38:24.670Z,101032.53
2019-06-10T23:40:52.514Z,101044.88
2019-06-10T23:43:18.962Z,101045.55
2019-06-10T23:45:44.837Z,101053.71
2019-06-10T23:48:13.185Z,101050.12
2019-06-10T23:50:38.475Z,101056.16
2019-06-10T23:53:07.539Z,101037.95
2019-06-10T23:55:32.095Z,101026.63
2019-06-10T23:57:58.366Z,101028.69
